createdAt,value
2023-03-22T00:02:58.708Z,26.19
2023-03-22T00:06:58.590Z,26.18
2023-03-22T00:10:58.603Z,26.18
2023-03-22T00:14:58.744Z,26.18
2023-03-22T00:18:58.959Z,26.17
2023-03-22T00:22:58.671Z,26.16
2023-03-22T00:26:58.693Z,26.16
2023-03-22T00:30:58.667Z,26.14
2023-03-22T00:34:58.888Z,26.14
2023-03-22T00:38:58.479Z,26.14
2023-03-22T00:42:58.749Z,26.13
2023-03-22T00:46:58.651Z,26.11
2023-03-22T00:50:58.610Z,26.11
2023-03-22T00:54:58.821Z,26.11
2023-03-22T00:58:58.942Z,26.09
2023-03-22T01:02:58.691Z,26.08
2023-03-22T01:06:58.985Z,26.09
2023-03-22T01:10:59.305Z,26.08
2023-03-22T01:14:59.462Z,26.07
2023-03-22T01:18:58.972Z,26.07
2023-03-22T01:22:58.975Z,26.06
2023-03-22T01:26:58.986Z,26.06
2023-03-22T01:30:59.170Z,26.06
2023-03-22T01:34:59.196Z,26.04
2023-03-22T01:38:59.291Z,26.04
2023-03-22T01:42:59.985Z,26.05
2023-03-22T01:46:59.710Z,26.04
2023-03-22T01:50:59.894Z,26.03
2023-03-22T01:55:00.164Z,26.01
2023-03-22T01:58:59.981Z,26.00
2023-03-22T02:03:00.043Z,26.00
2023-03-22T02:06:59.992Z,26.00
2023-03-22T02:11:00.042Z,25.99
2023-03-22T02:15:00.146Z,25.98
2023-03-22T02:19:00.281Z,25.98
2023-03-22T02:23:00.319Z,25.98
2023-03-22T02:27:00.445Z,25.97
2023-03-22T02:31:00.610Z,25.96
2023-03-22T02:35:00.543Z,25.96
2023-03-22T02:39:00.633Z,25.95
2023-03-22T02:43:00.659Z,25.94
2023-03-22T02:47:00.842Z,25.93
2023-03-22T02:51:00.830Z,25.93
2023-03-22T02:55:00.997Z,25.92
2023-03-22T02:59:00.998Z,25.92
2023-03-22T03:03:01.199Z,25.92
2023-03-22T03:07:01.170Z,25.91
2023-03-22T03:11:01.260Z,25.90
2023-03-22T03:15:01.323Z,25.89
2023-03-22T03:19:01.732Z,25.89
2023-03-22T03:23:01.466Z,25.88
2023-03-22T03:27:01.544Z,25.87
2023-03-22T03:31:01.728Z,25.86
2023-03-22T03:35:01.635Z,25.86
2023-03-22T03:39:02.077Z,25.86
2023-03-22T03:43:01.867Z,25.84
2023-03-22T03:47:01.893Z,25.84
2023-03-22T03:51:01.973Z,25.84
2023-03-22T03:55:02.382Z,25.84
2023-03-22T03:59:02.300Z,25.83
2023-03-22T04:03:02.241Z,25.82
2023-03-22T04:07:02.649Z,25.81
2023-03-22T04:11:02.483Z,25.81
2023-03-22T04:15:02.497Z,25.81
2023-03-22T04:19:02.623Z,25.79
2023-03-22T04:23:02.578Z,25.79
2023-03-22T04:27:02.676Z,25.79
2023-03-22T04:31:03.059Z,25.78
2023-03-22T04:35:03.248Z,25.78
2023-03-22T04:39:03.202Z,25.77
2023-03-22T04:43:03.534Z,25.76
2023-03-22T04:47:03.684Z,25.75
2023-03-22T04:51:03.320Z,25.75
2023-03-22T04:55:03.368Z,25.74
2023-03-22T04:59:03.426Z,25.74
2023-03-22T05:03:03.821Z,25.63
2023-03-22T05:07:03.588Z,25.40
2023-03-22T05:11:04.113Z,25.26
2023-03-22T05:15:03.865Z,25.12
2023-03-22T05:19:03.994Z,25.01
2023-03-22T05:23:03.963Z,24.99
2023-03-22T05:27:04.315Z,24.91
2023-03-22T05:31:04.190Z,24.95
2023-03-22T05:35:04.368Z,25.21
2023-03-22T05:39:04.489Z,25.42
2023-03-22T05:43:04.714Z,25.53
2023-03-22T05:47:05.384Z,25.59
2023-03-22T05:51:04.980Z,25.63
2023-03-22T05:55:05.660Z,25.66
2023-03-22T05:59:05.523Z,25.69
2023-03-22T06:03:05.551Z,25.70
2023-03-22T06:07:06.177Z,25.70
2023-03-22T06:11:06.122Z,25.73
2023-03-22T06:15:05.798Z,25.74
2023-03-22T06:19:05.883Z,25.75
2023-03-22T06:23:05.896Z,25.76
2023-03-22T06:27:06.939Z,25.74
2023-03-22T06:31:06.837Z,25.59
2023-03-22T06:35:06.189Z,25.56
2023-03-22T06:39:06.951Z,25.40
2023-03-22T06:43:07.310Z,25.43
2023-03-22T06:47:06.474Z,25.33
2023-03-22T06:51:06.589Z,25.31
2023-03-22T06:55:06.472Z,25.27
2023-03-22T06:59:06.599Z,25.21
2023-03-22T07:03:06.900Z,25.27
2023-03-22T07:07:06.832Z,25.27
2023-03-22T07:11:06.724Z,25.30
2023-03-22T07:15:06.874Z,25.36
2023-03-22T07:19:06.955Z,25.41
2023-03-22T07:23:07.011Z,25.46
2023-03-22T07:27:07.030Z,25.48
2023-03-22T07:31:07.093Z,25.50
2023-03-22T07:35:06.921Z,25.49
2023-03-22T07:39:07.108Z,25.68
2023-03-22T07:43:07.144Z,25.80
2023-03-22T07:47:06.958Z,25.79
2023-03-22T07:51:07.239Z,25.68
2023-03-22T07:55:06.720Z,25.65
2023-03-22T07:59:06.924Z,25.63
2023-03-22T08:03:06.854Z,25.66
2023-03-22T08:07:06.647Z,25.68
2023-03-22T08:11:06.857Z,25.70
2023-03-22T08:15:07.157Z,25.75
2023-03-22T08:19:07.292Z,25.84
2023-03-22T08:23:07.369Z,25.87
2023-03-22T08:27:07.591Z,25.95
2023-03-22T08:31:08.233Z,25.95
2023-03-22T08:35:07.911Z,26.08
2023-03-22T08:39:08.373Z,26.15
2023-03-22T08:43:07.975Z,26.22
2023-03-22T08:47:08.239Z,26.25
2023-03-22T08:51:08.275Z,26.34
2023-03-22T08:55:08.473Z,26.48
2023-03-22T08:59:08.574Z,26.46
2023-03-22T09:03:09.074Z,26.52
2023-03-22T09:07:08.852Z,26.58
2023-03-22T09:11:08.878Z,26.63
2023-03-22T09:15:08.924Z,26.65
2023-03-22T09:19:08.910Z,26.72
2023-03-22T09:23:09.000Z,26.79
2023-03-22T09:27:08.914Z,26.83
2023-03-22T09:31:09.135Z,26.83
2023-03-22T09:35:09.680Z,26.63
2023-03-22T09:39:09.265Z,26.52
2023-03-22T09:43:09.467Z,26.37
2023-03-22T09:47:09.978Z,26.21
2023-03-22T09:51:09.650Z,26.35
2023-03-22T09:55:09.933Z,26.52
2023-03-22T09:59:09.703Z,26.63
2023-03-22T10:03:09.681Z,26.72
2023-03-22T10:07:09.710Z,26.78
2023-03-22T10:11:09.726Z,26.66
2023-03-22T10:15:09.757Z,26.50
2023-03-22T10:19:10.194Z,26.42
2023-03-22T10:23:09.689Z,26.44
2023-03-22T10:27:09.732Z,26.59
2023-03-22T10:31:09.780Z,26.61
2023-03-22T10:35:10.196Z,26.67
2023-03-22T10:39:12.432Z,26.47
2023-03-22T10:43:10.102Z,26.49
2023-03-22T10:47:11.105Z,26.58
2023-03-22T10:51:10.029Z,26.65
2023-03-22T10:55:09.873Z,26.73
2023-03-22T10:59:10.415Z,26.81
2023-03-22T11:03:10.348Z,26.86
2023-03-22T11:07:09.904Z,26.89
2023-03-22T11:11:09.938Z,26.87
2023-03-22T11:15:10.133Z,26.91
2023-03-22T11:19:10.093Z,26.95
2023-03-22T11:23:10.249Z,27.00
2023-03-22T11:27:10.293Z,27.05
2023-03-22T11:31:10.477Z,27.13
2023-03-22T11:35:10.436Z,27.12
2023-03-22T11:39:10.385Z,26.99
2023-03-22T11:43:10.364Z,27.00
2023-03-22T11:47:10.297Z,27.05
2023-03-22T11:51:10.281Z,27.08
2023-03-22T11:55:10.239Z,27.07
2023-03-22T11:59:10.223Z,27.12
2023-03-22T12:03:10.299Z,27.16
2023-03-22T12:07:10.175Z,27.19
2023-03-22T12:11:10.258Z,27.22
2023-03-22T12:15:10.060Z,27.26
2023-03-22T12:19:10.085Z,27.28
2023-03-22T12:23:09.976Z,27.15
2023-03-22T12:27:10.645Z,27.08
2023-03-22T12:31:10.698Z,27.03
2023-03-22T12:35:17.128Z,26.96
2023-03-22T12:39:11.156Z,27.00
2023-03-22T12:43:10.287Z,27.00
2023-03-22T12:47:10.290Z,26.98
2023-03-22T12:51:10.059Z,26.98
2023-03-22T12:55:10.397Z,27.18
2023-03-22T12:59:10.501Z,27.35
2023-03-22T13:03:10.868Z,27.44
2023-03-22T13:07:10.340Z,27.52
2023-03-22T13:11:10.241Z,27.58
2023-03-22T13:15:10.273Z,27.64
2023-03-22T13:19:10.598Z,27.69
2023-03-22T13:23:10.486Z,27.76
2023-03-22T13:27:10.110Z,27.82
2023-03-22T13:31:10.067Z,27.87
2023-03-22T13:35:10.144Z,27.94
2023-03-22T13:39:10.009Z,28.01
2023-03-22T13:43:09.964Z,28.07
2023-03-22T13:47:10.270Z,28.16
2023-03-22T13:51:10.613Z,28.23
2023-03-22T13:55:09.885Z,28.31
2023-03-22T13:59:09.952Z,28.41
2023-03-22T14:03:10.106Z,28.49
2023-03-22T14:07:10.140Z,28.57
2023-03-22T14:11:09.971Z,28.66
2023-03-22T14:15:09.950Z,28.76
2023-03-22T14:19:09.836Z,28.83
2023-03-22T14:48:10.705Z,29.24
2023-03-22T14:52:10.678Z,29.32
2023-03-22T14:56:10.655Z,29.38
2023-03-22T15:00:10.919Z,29.46
2023-03-22T15:04:10.559Z,29.52
2023-03-22T15:08:10.530Z,29.58
2023-03-22T15:12:10.945Z,29.61
2023-03-22T15:16:11.360Z,29.63
2023-03-22T15:20:11.333Z,29.63
2023-03-22T15:24:11.353Z,29.61
2023-03-22T15:28:11.918Z,29.58
2023-03-22T15:32:12.200Z,29.55
2023-03-22T15:36:11.713Z,29.50
2023-03-22T15:40:11.968Z,29.46
2023-03-22T15:44:11.665Z,29.46
2023-03-22T15:48:11.622Z,29.49
2023-03-22T15:52:11.692Z,29.50
2023-03-22T15:56:11.518Z,29.48
2023-03-22T16:00:11.559Z,29.44
2023-03-22T16:04:11.562Z,29.40
2023-03-22T16:08:11.482Z,29.37
2023-03-22T16:12:11.374Z,29.33
2023-03-22T16:16:11.421Z,29.27
2023-03-22T16:20:11.337Z,29.21
2023-03-22T16:24:11.280Z,29.14
2023-03-22T16:28:11.309Z,29.09
2023-03-22T16:32:11.420Z,29.03
2023-03-22T16:36:12.692Z,28.98
2023-03-22T16:40:11.879Z,28.92
2023-03-22T16:44:12.200Z,28.87
2023-03-22T16:48:12.166Z,28.82
2023-03-22T16:52:12.048Z,28.76
2023-03-22T16:56:12.421Z,28.70
2023-03-22T17:00:12.681Z,28.65
2023-03-22T17:04:12.652Z,28.58
2023-03-22T17:08:12.461Z,28.52
2023-03-22T17:12:12.436Z,28.46
2023-03-22T17:16:12.505Z,28.42
2023-03-22T17:20:12.442Z,28.36
2023-03-22T17:24:12.732Z,28.32
2023-03-22T17:28:12.381Z,28.27
2023-03-22T17:32:16.776Z,28.21
2023-03-22T17:36:13.237Z,28.16
2023-03-22T17:40:32.509Z,28.11
2023-03-22T17:44:13.158Z,28.05
2023-03-22T17:48:12.165Z,28.01
2023-03-22T17:52:12.164Z,27.95
2023-03-22T17:56:42.275Z,27.90
2023-03-22T18:00:13.100Z,27.87
2023-03-22T18:04:12.366Z,27.84
2023-03-22T18:08:27.273Z,27.81
2023-03-22T18:12:13.145Z,27.77
2023-03-22T18:16:12.271Z,27.73
2023-03-22T18:20:23.213Z,27.70
2023-03-22T18:24:13.029Z,27.67
2023-03-22T18:28:12.042Z,27.63
2023-03-22T18:32:18.243Z,27.60
2023-03-22T18:36:13.355Z,27.45
2023-03-22T18:40:51.019Z,27.09
2023-03-22T18:44:13.134Z,26.92
2023-03-22T18:48:12.161Z,27.06
2023-03-22T18:52:40.063Z,27.19
2023-03-22T19:00:12.323Z,27.28
2023-03-22T19:04:12.081Z,27.28
2023-03-22T19:08:25.400Z,27.30
2023-03-22T19:12:13.492Z,27.31
2023-03-22T19:16:12.065Z,27.31
2023-03-22T19:20:13.068Z,27.25
2023-03-22T19:24:11.988Z,27.34
2023-03-22T19:28:12.112Z,27.39
2023-03-22T19:32:12.139Z,27.43
2023-03-22T19:36:12.091Z,27.45
2023-03-22T19:41:14.915Z,27.48
2023-03-22T19:44:13.340Z,27.50
2023-03-22T19:48:12.068Z,27.49
2023-03-22T19:52:12.199Z,27.49
2023-03-22T19:56:12.334Z,27.49
2023-03-22T20:00:44.524Z,27.48
2023-03-22T20:04:12.879Z,27.47
2023-03-22T20:08:12.326Z,27.46
2023-03-22T20:12:12.218Z,27.45
2023-03-22T20:16:12.339Z,27.44
2023-03-22T20:20:12.519Z,27.43
2023-03-22T20:24:12.791Z,27.41
2023-03-22T20:28:12.627Z,27.40
2023-03-22T20:32:12.753Z,27.39
2023-03-22T20:36:12.916Z,27.37
2023-03-22T20:40:12.953Z,27.36
2023-03-22T20:44:13.080Z,27.36
2023-03-22T20:48:13.300Z,27.35
2023-03-22T20:52:13.293Z,27.34
2023-03-22T20:56:13.167Z,27.33
2023-03-22T21:00:13.135Z,27.32
2023-03-22T21:04:13.310Z,27.32
2023-03-22T21:08:14.356Z,27.31
2023-03-22T21:12:13.173Z,27.29
2023-03-22T21:16:13.162Z,27.28
2023-03-22T21:20:20.667Z,27.27
2023-03-22T21:24:14.139Z,27.26
2023-03-22T21:28:13.130Z,27.26
2023-03-22T21:32:13.057Z,27.25
2023-03-22T21:36:13.086Z,27.24
2023-03-22T21:40:12.964Z,27.22
2023-03-22T21:44:13.673Z,27.22
2023-03-22T21:48:12.968Z,27.20
2023-03-22T21:52:20.017Z,27.19
2023-03-22T21:56:13.157Z,27.18
2023-03-22T22:00:12.886Z,27.17
2023-03-22T22:04:13.024Z,27.15
2023-03-22T22:08:12.884Z,27.15
2023-03-22T22:12:12.739Z,27.14
2023-03-22T22:16:12.890Z,27.13
2023-03-22T22:20:13.013Z,27.11
2023-03-22T22:24:12.600Z,27.10
2023-03-22T22:28:12.761Z,27.09
2023-03-22T22:32:12.850Z,27.08
2023-03-22T22:36:12.597Z,27.07
2023-03-22T22:40:12.456Z,27.06
2023-03-22T22:44:12.678Z,27.05
2023-03-22T22:48:12.420Z,27.04
2023-03-22T22:52:12.398Z,27.03
2023-03-22T22:56:12.372Z,27.02
2023-03-22T23:00:12.490Z,27.01
2023-03-22T23:04:12.567Z,26.99
2023-03-22T23:08:12.684Z,26.99
2023-03-22T23:12:12.710Z,26.97
2023-03-22T23:16:12.852Z,26.96
2023-03-22T23:20:13.235Z,26.95
2023-03-22T23:24:13.212Z,26.93
2023-03-22T23:28:13.115Z,26.93
2023-03-22T23:32:13.210Z,26.92
2023-03-22T23:36:13.346Z,26.92
2023-03-22T23:40:13.365Z,26.90
2023-03-22T23:44:13.760Z,26.89
2023-03-22T23:48:13.642Z,26.89
2023-03-22T23:52:13.749Z,26.87
2023-03-22T23:56:13.832Z,26.86
